createdAt,value
2023-02-14T00:04:23.107Z,103282.81
2023-02-14T00:09:25.361Z,103280.03
2023-02-14T00:14:29.070Z,103273.56
2023-02-14T00:19:31.533Z,103289.44
2023-02-14T00:24:33.896Z,103281.47
2023-02-14T00:29:37.262Z,103289.00
2023-02-14T00:34:41.036Z,103275.88
2023-02-14T00:39:43.216Z,103269.88
2023-02-14T00:44:47.370Z,103286.22
2023-02-14T00:49:50.081Z,103291.31
2023-02-14T00:54:52.169Z,103284.09
2023-02-14T00:59:55.392Z,103276.03
2023-02-14T01:04:57.334Z,103278.63
2023-02-14T01:09:59.464Z,103271.53
2023-02-14T01:15:03.059Z,103265.28
2023-02-14T01:20:07.096Z,103267.84
2023-02-14T01:25:09.139Z,103255.50
2023-02-14T01:30:16.559Z,103252.88
2023-02-14T01:35:19.132Z,103248.34
2023-02-14T01:40:21.679Z,103245.31
2023-02-14T01:45:45.913Z,103241.41
2023-02-14T01:50:51.550Z,103250.28
2023-02-14T01:56:08.423Z,103252.09
2023-02-14T02:01:13.596Z,103245.84
2023-02-14T02:06:18.188Z,103246.50
2023-02-14T02:11:26.331Z,103246.50
2023-02-14T02:16:55.337Z,103242.91
2023-02-14T02:22:52.137Z,103245.84
2023-02-14T02:28:15.126Z,103239.97
2023-02-14T02:33:52.822Z,103244.25
2023-02-14T02:39:09.868Z,103243.50
2023-02-14T02:44:19.110Z,103243.41
2023-02-14T02:49:32.821Z,103246.03
2023-02-14T02:54:43.135Z,103239.13
2023-02-14T02:59:46.401Z,103240.19
2023-02-14T03:04:53.912Z,103238.66
2023-02-14T03:15:22.610Z,103236.88
2023-02-14T03:20:44.165Z,103243.78
2023-02-14T03:25:59.453Z,103230.75
2023-02-14T03:31:20.939Z,103228.13
2023-02-14T03:36:27.832Z,103228.09
2023-02-14T03:42:00.596Z,103241.97
2023-02-14T03:47:16.150Z,103244.47
2023-02-14T03:52:19.745Z,103237.53
2023-02-14T03:57:27.436Z,103240.91
2023-02-14T04:02:33.969Z,103222.25
2023-02-14T04:07:44.950Z,103225.13
2023-02-14T04:12:48.789Z,103231.13
2023-02-14T04:17:51.020Z,103228.34
2023-02-14T04:22:52.847Z,103226.53
2023-02-14T04:27:56.434Z,103230.97
2023-02-14T04:32:58.569Z,103225.47
2023-02-14T04:38:02.013Z,103217.00
2023-02-14T04:43:05.613Z,103216.09
2023-02-14T04:48:07.955Z,103211.34
2023-02-14T04:53:10.376Z,103209.31
2023-02-14T04:58:13.936Z,103213.72
2023-02-14T05:03:16.397Z,103208.53
2023-02-14T05:08:18.504Z,103213.41
2023-02-14T05:13:21.904Z,103211.09
2023-02-14T05:18:23.835Z,103207.78
2023-02-14T05:23:26.067Z,103201.63
2023-02-14T05:28:29.583Z,103199.00
2023-02-14T05:33:31.365Z,103197.34
2023-02-14T05:38:33.587Z,103184.47
2023-02-14T05:43:36.991Z,103188.16
2023-02-14T05:48:39.300Z,103183.28
2023-02-14T05:53:41.421Z,103180.16
2023-02-14T05:58:45.375Z,103183.00
2023-02-14T06:03:47.135Z,103172.94
2023-02-14T06:08:49.239Z,103195.16
2023-02-14T06:13:52.791Z,103192.28
2023-02-14T06:18:54.557Z,103189.44
2023-02-14T06:23:56.725Z,103197.81
2023-02-14T06:28:59.894Z,103203.69
2023-02-14T06:34:01.973Z,103197.16
2023-02-14T06:39:12.865Z,103194.69
2023-02-14T06:44:16.104Z,103197.06
2023-02-14T06:49:17.905Z,103193.75
2023-02-14T06:54:19.841Z,103200.59
2023-02-14T06:59:23.709Z,103191.22
2023-02-14T07:04:25.573Z,103194.00
2023-02-14T07:09:27.828Z,103196.84
2023-02-14T07:14:31.368Z,103186.09
2023-02-14T07:19:33.123Z,103196.66
2023-02-14T07:24:35.191Z,103186.06
2023-02-14T07:29:38.277Z,103186.50
2023-02-14T07:34:40.247Z,103191.16
2023-02-14T07:39:42.380Z,103193.41
2023-02-14T07:44:45.741Z,103192.34
2023-02-14T07:49:48.045Z,103189.47
2023-02-14T07:54:50.573Z,103188.56
2023-02-14T07:59:54.227Z,103194.75
2023-02-14T08:04:56.615Z,103192.50
2023-02-14T08:09:58.781Z,103193.47
2023-02-14T08:15:02.346Z,103189.97
2023-02-14T08:20:05.507Z,103194.72
2023-02-14T08:25:07.985Z,103203.72
2023-02-14T08:30:12.371Z,103208.88
2023-02-14T08:35:14.593Z,103219.34
2023-02-14T08:40:16.441Z,103210.63
2023-02-14T08:45:19.922Z,103216.41
2023-02-14T08:50:22.448Z,103215.03
2023-02-14T08:55:24.267Z,103219.69
2023-02-14T09:00:28.018Z,103222.47
2023-02-14T09:05:30.306Z,103233.91
2023-02-14T09:10:32.223Z,103221.22
2023-02-14T09:15:35.540Z,103235.00
2023-02-14T09:20:56.787Z,103223.97
2023-02-14T09:26:01.749Z,103220.22
2023-02-14T09:31:11.272Z,103215.34
2023-02-14T09:36:21.176Z,103227.44
2023-02-14T09:47:34.438Z,103233.25
2023-02-14T09:52:37.391Z,103231.34
2023-02-14T09:57:45.417Z,103236.06
2023-02-14T10:03:01.558Z,103242.44
2023-02-14T10:08:27.380Z,103248.28
2023-02-14T10:13:35.619Z,103241.09
2023-02-14T10:18:42.774Z,103232.03
2023-02-14T10:23:51.196Z,103235.09
2023-02-14T10:34:29.116Z,103215.19
2023-02-14T10:40:04.520Z,103212.53
2023-02-14T10:45:18.725Z,103214.22
2023-02-14T10:50:30.656Z,103224.88
2023-02-14T10:55:58.723Z,103219.03
2023-02-14T11:01:03.914Z,103213.41
2023-02-14T11:06:08.706Z,103211.25
2023-02-14T11:11:24.923Z,103209.44
2023-02-14T11:16:33.545Z,103190.31
2023-02-14T11:21:40.253Z,103201.38
2023-02-14T11:26:50.120Z,103210.72
2023-02-14T11:31:52.572Z,103195.13
2023-02-14T11:36:55.988Z,103194.38
2023-02-14T11:42:06.112Z,103183.09
2023-02-14T11:47:38.083Z,103187.91
2023-02-14T11:53:01.288Z,103188.69
2023-02-14T11:58:06.285Z,103171.97
2023-02-14T12:03:19.471Z,103167.56
2023-02-14T12:08:29.047Z,103167.50
2023-02-14T12:13:32.373Z,103153.91
2023-02-14T12:18:45.649Z,103151.16
2023-02-14T12:23:58.904Z,103141.75
2023-02-14T12:29:10.012Z,103141.19
2023-02-14T12:34:13.254Z,103122.13
2023-02-14T12:39:27.920Z,103115.25
2023-02-14T12:44:39.069Z,103106.34
2023-02-14T12:50:02.292Z,103115.66
2023-02-14T12:55:24.347Z,103096.50
2023-02-14T13:00:37.240Z,103095.59
2023-02-14T13:05:49.925Z,103094.41
2023-02-14T13:11:01.973Z,103094.31
2023-02-14T13:16:13.486Z,103095.34
2023-02-14T13:21:20.073Z,103080.50
2023-02-14T13:26:29.088Z,103083.63
2023-02-14T13:31:31.963Z,103064.78
2023-02-14T13:36:35.062Z,103076.34
2023-02-14T13:41:40.142Z,103070.81
2023-02-14T13:46:53.104Z,103064.28
2023-02-14T13:51:56.693Z,103068.13
2023-02-14T13:57:03.656Z,103054.78
2023-02-14T14:02:41.116Z,103059.31
2023-02-14T14:07:43.125Z,103064.84
2023-02-14T14:12:47.020Z,103054.97
2023-02-14T14:18:28.248Z,103043.69
2023-02-14T14:23:33.886Z,103049.53
2023-02-14T14:28:38.130Z,103044.59
2023-02-14T14:33:40.086Z,103038.16
2023-02-14T14:38:47.667Z,103028.28
2023-02-14T14:43:50.959Z,103029.88
2023-02-14T14:48:55.416Z,103033.59
2023-02-14T14:54:00.998Z,103030.09
2023-02-14T14:59:28.613Z,103039.59
2023-02-14T15:04:33.078Z,103025.59
2023-02-14T15:09:35.045Z,103021.34
2023-02-14T15:14:42.414Z,103027.13
2023-02-14T15:19:47.635Z,103025.06
2023-02-14T15:24:50.063Z,103012.59
2023-02-14T15:29:59.456Z,103009.00
2023-02-14T15:35:04.489Z,102997.28
2023-02-14T15:40:08.981Z,102998.31
2023-02-14T15:45:20.324Z,103001.59
2023-02-14T15:50:24.838Z,102989.75
2023-02-14T15:55:27.865Z,102982.44
2023-02-14T16:00:32.603Z,102986.69
2023-02-14T16:05:35.391Z,102973.44
2023-02-14T16:10:39.371Z,102980.38
2023-02-14T16:15:57.127Z,102971.50
2023-02-14T16:21:11.403Z,102964.16
2023-02-14T16:26:14.268Z,102964.09
2023-02-14T16:31:18.803Z,102969.19
2023-02-14T16:36:25.023Z,102972.59
2023-02-14T16:41:29.349Z,102971.00
2023-02-14T16:46:35.815Z,102970.78
2023-02-14T16:51:39.855Z,102966.38
2023-02-14T16:56:44.966Z,102975.09
2023-02-14T17:01:49.169Z,102976.53
2023-02-14T17:06:54.105Z,102967.75
2023-02-14T17:12:01.274Z,102974.69
2023-02-14T17:17:05.288Z,102976.19
2023-02-14T17:22:07.331Z,102974.25
2023-02-14T17:27:09.344Z,102979.41
2023-02-14T17:32:12.895Z,102977.44
2023-02-14T17:37:15.116Z,102972.88
2023-02-14T17:42:17.427Z,102979.81
2023-02-14T17:47:23.006Z,102969.97
2023-02-14T17:52:24.987Z,102957.50
2023-02-14T17:57:27.125Z,102970.69
2023-02-14T18:02:30.601Z,102959.91
2023-02-14T18:07:32.911Z,102951.13
2023-02-14T18:12:34.593Z,102948.34
2023-02-14T18:17:38.415Z,102943.63
2023-02-14T18:22:41.015Z,102936.59
2023-02-14T18:27:42.882Z,102937.13
2023-02-14T18:32:45.985Z,102929.41
2023-02-14T18:37:47.721Z,102923.66
2023-02-14T18:42:49.721Z,102919.06
2023-02-14T18:47:53.512Z,102915.63
2023-02-14T18:52:56.028Z,102905.94
2023-02-14T18:57:57.748Z,102889.94
2023-02-14T19:03:01.758Z,102892.31
2023-02-14T19:08:11.214Z,102882.59
2023-02-14T19:13:13.035Z,102881.06
2023-02-14T19:18:16.512Z,102887.81
2023-02-14T19:23:27.847Z,102883.91
2023-02-14T19:28:30.180Z,102883.88
2023-02-14T19:33:38.034Z,102886.50
2023-02-14T19:38:40.970Z,102885.75
2023-02-14T19:43:42.955Z,102886.78
2023-02-14T19:48:47.396Z,102880.25
2023-02-14T19:53:50.367Z,102874.56
2023-02-14T19:58:54.201Z,102876.59
2023-02-14T20:09:26.541Z,102879.47
2023-02-14T20:14:35.976Z,102869.63
2023-02-14T20:19:44.775Z,102868.19
2023-02-14T20:24:47.108Z,102854.69
2023-02-14T20:29:49.799Z,102858.91
2023-02-14T20:34:54.282Z,102855.28
2023-02-14T20:39:57.020Z,102863.06
2023-02-14T20:44:59.402Z,102853.75
2023-02-14T20:50:03.537Z,102856.94
2023-02-14T20:55:06.501Z,102839.53
2023-02-14T21:00:12.314Z,102844.97
2023-02-14T21:05:40.251Z,102839.47
2023-02-14T21:10:42.568Z,102837.94
2023-02-14T21:15:45.857Z,102825.59
2023-02-14T21:20:50.348Z,102813.03
2023-02-14T21:25:53.046Z,102816.63
2023-02-14T21:31:03.583Z,102813.34
2023-02-14T21:36:09.649Z,102812.97
2023-02-14T21:41:13.732Z,102795.53
2023-02-14T21:46:17.915Z,102794.81
2023-02-14T21:51:22.263Z,102801.88
2023-02-14T21:56:24.407Z,102805.34
2023-02-14T22:01:28.334Z,102797.94
2023-02-14T22:06:31.804Z,102796.34
2023-02-14T22:11:34.750Z,102789.13
2023-02-14T22:16:36.914Z,102792.44
2023-02-14T22:21:41.006Z,102798.78
2023-02-14T22:26:43.033Z,102794.34
2023-02-14T22:31:45.037Z,102781.00
2023-02-14T22:36:48.584Z,102777.78
2023-02-14T22:41:50.384Z,102767.25
2023-02-14T22:46:52.564Z,102765.75
2023-02-14T22:52:01.983Z,102756.81
2023-02-14T22:57:04.094Z,102751.69
2023-02-14T23:02:06.673Z,102742.31
2023-02-14T23:07:12.036Z,102752.31
2023-02-14T23:12:14.086Z,102745.41
2023-02-14T23:17:16.542Z,102750.91
2023-02-14T23:22:21.897Z,102746.44
2023-02-14T23:27:26.569Z,102741.94
2023-02-14T23:32:31.796Z,102740.59
2023-02-14T23:37:46.807Z,102739.22
2023-02-14T23:42:54.688Z,102735.97
2023-02-14T23:48:04.965Z,102735.22
2023-02-14T23:53:08.597Z,102742.84
2023-02-14T23:58:10.921Z,102730.44
